sensor_id;sensor_type;location;lat;lon;timestamp;P1;durP1;ratioP1;P2;durP2;ratioP2
2624;SDS011;1322;53.256;10.386;2023-04-24T00:02:02;9.40;;;4.00;;
2624;SDS011;1322;53.256;10.386;2023-04-24T00:04:29;4.97;;;4.27;;
2624;SDS011;1322;53.256;10.386;2023-04-24T00:06:56;4.30;;;3.90;;
2624;SDS011;1322;53.256;10.386;2023-04-24T00:09:24;4.23;;;3.83;;
2624;SDS011;1322;53.256;10.386;2023-04-24T00:11:51;6.30;;;3.60;;
2624;SDS011;1322;53.256;10.386;2023-04-24T00:14:17;5.30;;;3.30;;
2624;SDS011;1322;53.256;10.386;2023-04-24T00:16:43;6.00;;;3.63;;
2624;SDS011;1322;53.256;10.386;2023-04-24T00:19:09;4.17;;;3.77;;
2624;SDS011;1322;53.256;10.386;2023-04-24T00:21:36;4.70;;;3.87;;
2624;SDS011;1322;53.256;10.386;2023-04-24T00:24:02;7.40;;;3.93;;
2624;SDS011;1322;53.256;10.386;2023-04-24T00:26:29;4.30;;;3.90;;
2624;SDS011;1322;53.256;10.386;2023-04-24T00:28:55;5.00;;;3.57;;
2624;SDS011;1322;53.256;10.386;2023-04-24T00:31:21;4.63;;;4.03;;
2624;SDS011;1322;53.256;10.386;2023-04-24T00:33:46;3.80;;;3.40;;
2624;SDS011;1322;53.256;10.386;2023-04-24T00:36:12;7.40;;;3.90;;
2624;SDS011;1322;53.256;10.386;2023-04-24T00:38:38;4.20;;;3.80;;
2624;SDS011;1322;53.256;10.386;2023-04-24T00:41:05;6.07;;;3.60;;
2624;SDS011;1322;53.256;10.386;2023-04-24T00:43:32;4.10;;;3.70;;
2624;SDS011;1322;53.256;10.386;2023-04-24T00:45:58;4.57;;;3.93;;
2624;SDS011;1322;53.256;10.386;2023-04-24T00:48:26;8.67;;;3.87;;
2624;SDS011;1322;53.256;10.386;2023-04-24T00:50:53;6.40;;;3.60;;
2624;SDS011;1322;53.256;10.386;2023-04-24T00:53:19;6.40;;;4.27;;
2624;SDS011;1322;53.256;10.386;2023-04-24T00:55:45;8.00;;;3.97;;
2624;SDS011;1322;53.256;10.386;2023-04-24T00:58:12;6.20;;;3.97;;
2624;SDS011;1322;53.256;10.386;2023-04-24T01:00:38;5.87;;;4.03;;
2624;SDS011;1322;53.256;10.386;2023-04-24T01:03:04;6.70;;;3.87;;
2624;SDS011;1322;53.256;10.386;2023-04-24T01:05:31;4.77;;;3.60;;
2624;SDS011;1322;53.256;10.386;2023-04-24T01:07:57;3.43;;;3.13;;
2624;SDS011;1322;53.256;10.386;2023-04-24T01:10:24;4.57;;;3.40;;
2624;SDS011;1322;53.256;10.386;2023-04-24T01:12:52;4.30;;;3.33;;
2624;SDS011;1322;53.256;10.386;2023-04-24T01:15:18;5.90;;;3.37;;
2624;SDS011;1322;53.256;10.386;2023-04-24T01:17:44;6.57;;;4.07;;
2624;SDS011;1322;53.256;10.386;2023-04-24T01:20:11;5.23;;;3.97;;
2624;SDS011;1322;53.256;10.386;2023-04-24T01:22:38;4.83;;;3.67;;
2624;SDS011;1322;53.256;10.386;2023-04-24T01:25:04;3.43;;;3.13;;
2624;SDS011;1322;53.256;10.386;2023-04-24T01:27:30;3.97;;;3.00;;
2624;SDS011;1322;53.256;10.386;2023-04-24T01:29:56;4.00;;;3.47;;
2624;SDS011;1322;53.256;10.386;2023-04-24T01:32:23;3.50;;;3.07;;
2624;SDS011;1322;53.256;10.386;2023-04-24T01:34:49;4.50;;;3.00;;
2624;SDS011;1322;53.256;10.386;2023-04-24T01:37:16;5.80;;;5.30;;
2624;SDS011;1322;53.256;10.386;2023-04-24T01:39:42;2.67;;;2.47;;
2624;SDS011;1322;53.256;10.386;2023-04-24T01:42:08;3.10;;;2.57;;
2624;SDS011;1322;53.256;10.386;2023-04-24T01:44:34;4.00;;;2.33;;
2624;SDS011;1322;53.256;10.386;2023-04-24T01:47:01;2.97;;;2.67;;
2624;SDS011;1322;53.256;10.386;2023-04-24T01:49:27;3.40;;;2.13;;
2624;SDS011;1322;53.256;10.386;2023-04-24T01:51:53;3.90;;;2.93;;
2624;SDS011;1322;53.256;10.386;2023-04-24T01:54:19;2.70;;;2.10;;
2624;SDS011;1322;53.256;10.386;2023-04-24T01:56:47;3.30;;;2.20;;
2624;SDS011;1322;53.256;10.386;2023-04-24T01:59:14;2.67;;;1.93;;
2624;SDS011;1322;53.256;10.386;2023-04-24T02:01:41;2.20;;;2.00;;
2624;SDS011;1322;53.256;10.386;2023-04-24T02:04:07;2.67;;;2.10;;
2624;SDS011;1322;53.256;10.386;2023-04-24T02:06:34;2.07;;;1.87;;
2624;SDS011;1322;53.256;10.386;2023-04-24T02:09:00;2.90;;;2.10;;
2624;SDS011;1322;53.256;10.386;2023-04-24T02:11:26;2.27;;;1.90;;
2624;SDS011;1322;53.256;10.386;2023-04-24T02:13:52;2.50;;;2.30;;
2624;SDS011;1322;53.256;10.386;2023-04-24T02:16:18;2.80;;;1.83;;
2624;SDS011;1322;53.256;10.386;2023-04-24T02:18:44;2.40;;;2.20;;
2624;SDS011;1322;53.256;10.386;2023-04-24T02:21:10;2.10;;;1.70;;
2624;SDS011;1322;53.256;10.386;2023-04-24T02:23:36;2.00;;;1.80;;
2624;SDS011;1322;53.256;10.386;2023-04-24T02:26:02;6.93;;;1.90;;
2624;SDS011;1322;53.256;10.386;2023-04-24T02:28:28;2.27;;;1.70;;
2624;SDS011;1322;53.256;10.386;2023-04-24T02:30:54;2.73;;;1.70;;
2624;SDS011;1322;53.256;10.386;2023-04-24T02:33:20;2.90;;;2.00;;
2624;SDS011;1322;53.256;10.386;2023-04-24T02:35:46;2.10;;;1.90;;
2624;SDS011;1322;53.256;10.386;2023-04-24T02:38:12;3.23;;;1.80;;
2624;SDS011;1322;53.256;10.386;2023-04-24T02:40:38;2.13;;;1.93;;
2624;SDS011;1322;53.256;10.386;2023-04-24T02:43:04;2.13;;;1.60;;
2624;SDS011;1322;53.256;10.386;2023-04-24T02:45:30;1.83;;;1.60;;
2624;SDS011;1322;53.256;10.386;2023-04-24T02:47:59;2.07;;;1.83;;
2624;SDS011;1322;53.256;10.386;2023-04-24T02:50:25;1.80;;;1.60;;
2624;SDS011;1322;53.256;10.386;2023-04-24T02:52:51;1.97;;;1.67;;
2624;SDS011;1322;53.256;10.386;2023-04-24T02:55:17;2.07;;;1.60;;
2624;SDS011;1322;53.256;10.386;2023-04-24T02:57:43;2.13;;;1.67;;
2624;SDS011;1322;53.256;10.386;2023-04-24T03:00:09;1.53;;;1.30;;
2624;SDS011;1322;53.256;10.386;2023-04-24T03:02:36;2.67;;;1.73;;
2624;SDS011;1322;53.256;10.386;2023-04-24T03:05:02;1.83;;;1.53;;
2624;SDS011;1322;53.256;10.386;2023-04-24T03:07:29;3.93;;;1.47;;
2624;SDS011;1322;53.256;10.386;2023-04-24T03:09:56;2.77;;;1.87;;
2624;SDS011;1322;53.256;10.386;2023-04-24T03:12:23;2.00;;;1.80;;
2624;SDS011;1322;53.256;10.386;2023-04-24T03:14:49;3.87;;;3.57;;
2624;SDS011;1322;53.256;10.386;2023-04-24T03:17:15;2.47;;;1.90;;
2624;SDS011;1322;53.256;10.386;2023-04-24T03:19:41;2.97;;;2.10;;
2624;SDS011;1322;53.256;10.386;2023-04-24T03:22:07;3.47;;;1.70;;
2624;SDS011;1322;53.256;10.386;2023-04-24T03:24:34;2.40;;;1.73;;
2624;SDS011;1322;53.256;10.386;2023-04-24T03:27:00;8.37;;;1.87;;
2624;SDS011;1322;53.256;10.386;2023-04-24T03:29:26;1.90;;;1.70;;
2624;SDS011;1322;53.256;10.386;2023-04-24T03:31:52;2.60;;;1.87;;
2624;SDS011;1322;53.256;10.386;2023-04-24T03:34:18;3.20;;;1.30;;
2624;SDS011;1322;53.256;10.386;2023-04-24T03:36:44;1.80;;;1.37;;
2624;SDS011;1322;53.256;10.386;2023-04-24T03:39:12;2.20;;;1.70;;
2624;SDS011;1322;53.256;10.386;2023-04-24T03:41:38;1.80;;;1.60;;
2624;SDS011;1322;53.256;10.386;2023-04-24T03:44:04;2.40;;;1.40;;
2624;SDS011;1322;53.256;10.386;2023-04-24T03:46:30;2.53;;;1.53;;
2624;SDS011;1322;53.256;10.386;2023-04-24T03:48:56;1.47;;;1.37;;
2624;SDS011;1322;53.256;10.386;2023-04-24T03:51:22;2.20;;;1.80;;
2624;SDS011;1322;53.256;10.386;2023-04-24T03:53:48;1.73;;;1.33;;
2624;SDS011;1322;53.256;10.386;2023-04-24T03:56:15;1.60;;;1.40;;
2624;SDS011;1322;53.256;10.386;2023-04-24T03:58:41;6.80;;;1.60;;
2624;SDS011;1322;53.256;10.386;2023-04-24T04:01:06;1.87;;;1.67;;
2624;SDS011;1322;53.256;10.386;2023-04-24T04:03:32;1.63;;;1.33;;
2624;SDS011;1322;53.256;10.386;2023-04-24T04:05:59;1.63;;;1.50;;
2624;SDS011;1322;53.256;10.386;2023-04-24T04:08:25;2.63;;;1.40;;
2624;SDS011;1322;53.256;10.386;2023-04-24T04:10:51;1.83;;;1.37;;
2624;SDS011;1322;53.256;10.386;2023-04-24T04:13:17;1.77;;;1.60;;
2624;SDS011;1322;53.256;10.386;2023-04-24T04:15:43;3.57;;;1.43;;
2624;SDS011;1322;53.256;10.386;2023-04-24T04:18:09;1.50;;;1.33;;
2624;SDS011;1322;53.256;10.386;2023-04-24T04:20:35;1.60;;;1.37;;
2624;SDS011;1322;53.256;10.386;2023-04-24T04:23:01;1.70;;;1.30;;
2624;SDS011;1322;53.256;10.386;2023-04-24T04:25:27;1.37;;;1.13;;
2624;SDS011;1322;53.256;10.386;2023-04-24T04:27:54;2.50;;;1.30;;
2624;SDS011;1322;53.256;10.386;2023-04-24T04:30:20;4.07;;;1.43;;
2624;SDS011;1322;53.256;10.386;2023-04-24T04:32:46;1.50;;;1.40;;
2624;SDS011;1322;53.256;10.386;2023-04-24T04:35:12;1.40;;;1.13;;
2624;SDS011;1322;53.256;10.386;2023-04-24T04:37:38;1.40;;;1.20;;
2624;SDS011;1322;53.256;10.386;2023-04-24T04:40:05;2.27;;;1.60;;
2624;SDS011;1322;53.256;10.386;2023-04-24T04:42:31;1.67;;;1.37;;
2624;SDS011;1322;53.256;10.386;2023-04-24T04:44:59;1.43;;;1.13;;
2624;SDS011;1322;53.256;10.386;2023-04-24T04:47:25;4.03;;;1.30;;
2624;SDS011;1322;53.256;10.386;2023-04-24T04:49:53;2.00;;;1.27;;
2624;SDS011;1322;53.256;10.386;2023-04-24T04:52:19;2.50;;;1.40;;
2624;SDS011;1322;53.256;10.386;2023-04-24T04:54:49;3.23;;;1.50;;
2624;SDS011;1322;53.256;10.386;2023-04-24T04:57:15;4.27;;;1.80;;
2624;SDS011;1322;53.256;10.386;2023-04-24T04:59:41;2.03;;;1.70;;
2624;SDS011;1322;53.256;10.386;2023-04-24T05:02:07;1.97;;;1.33;;
2624;SDS011;1322;53.256;10.386;2023-04-24T05:04:33;2.60;;;1.30;;
2624;SDS011;1322;53.256;10.386;2023-04-24T05:06:59;1.53;;;1.30;;
2624;SDS011;1322;53.256;10.386;2023-04-24T05:09:25;3.10;;;1.40;;
2624;SDS011;1322;53.256;10.386;2023-04-24T05:11:53;1.50;;;1.10;;
2624;SDS011;1322;53.256;10.386;2023-04-24T05:14:20;2.53;;;1.43;;
2624;SDS011;1322;53.256;10.386;2023-04-24T05:16:46;2.03;;;1.60;;
2624;SDS011;1322;53.256;10.386;2023-04-24T05:19:12;2.53;;;1.73;;
2624;SDS011;1322;53.256;10.386;2023-04-24T05:21:39;2.07;;;1.60;;
2624;SDS011;1322;53.256;10.386;2023-04-24T05:24:06;2.97;;;1.80;;
2624;SDS011;1322;53.256;10.386;2023-04-24T05:26:35;1.40;;;1.10;;
2624;SDS011;1322;53.256;10.386;2023-04-24T05:29:01;2.23;;;1.20;;
2624;SDS011;1322;53.256;10.386;2023-04-24T05:31:27;2.40;;;1.57;;
2624;SDS011;1322;53.256;10.386;2023-04-24T05:33:54;1.60;;;1.30;;
2624;SDS011;1322;53.256;10.386;2023-04-24T05:36:20;2.27;;;1.40;;
2624;SDS011;1322;53.256;10.386;2023-04-24T05:38:46;2.20;;;1.50;;
2624;SDS011;1322;53.256;10.386;2023-04-24T05:41:12;4.13;;;1.87;;
2624;SDS011;1322;53.256;10.386;2023-04-24T05:43:38;1.50;;;1.30;;
2624;SDS011;1322;53.256;10.386;2023-04-24T05:46:04;3.50;;;1.50;;
2624;SDS011;1322;53.256;10.386;2023-04-24T05:48:30;1.87;;;1.47;;
2624;SDS011;1322;53.256;10.386;2023-04-24T05:50:56;2.50;;;1.30;;
2624;SDS011;1322;53.256;10.386;2023-04-24T05:53:22;3.70;;;1.40;;
2624;SDS011;1322;53.256;10.386;2023-04-24T05:55:48;1.93;;;1.40;;
2624;SDS011;1322;53.256;10.386;2023-04-24T05:58:14;1.93;;;1.53;;
2624;SDS011;1322;53.256;10.386;2023-04-24T06:00:43;1.90;;;1.50;;
2624;SDS011;1322;53.256;10.386;2023-04-24T06:03:11;3.47;;;1.60;;
2624;SDS011;1322;53.256;10.386;2023-04-24T06:05:37;1.73;;;1.27;;
2624;SDS011;1322;53.256;10.386;2023-04-24T06:08:03;2.13;;;1.63;;
2624;SDS011;1322;53.256;10.386;2023-04-24T06:10:29;2.10;;;1.30;;
2624;SDS011;1322;53.256;10.386;2023-04-24T06:12:55;1.90;;;1.40;;
2624;SDS011;1322;53.256;10.386;2023-04-24T06:15:25;1.70;;;1.50;;
2624;SDS011;1322;53.256;10.386;2023-04-24T06:17:51;3.87;;;1.50;;
2624;SDS011;1322;53.256;10.386;2023-04-24T06:20:16;2.70;;;1.47;;
2624;SDS011;1322;53.256;10.386;2023-04-24T06:22:43;3.93;;;1.30;;
2624;SDS011;1322;53.256;10.386;2023-04-24T06:25:09;2.20;;;1.57;;
2624;SDS011;1322;53.256;10.386;2023-04-24T06:27:35;1.47;;;1.00;;
2624;SDS011;1322;53.256;10.386;2023-04-24T06:30:01;1.40;;;1.10;;
2624;SDS011;1322;53.256;10.386;2023-04-24T06:32:27;2.47;;;1.30;;
2624;SDS011;1322;53.256;10.386;2023-04-24T06:34:53;1.50;;;1.30;;
2624;SDS011;1322;53.256;10.386;2023-04-24T06:37:22;5.80;;;1.40;;
2624;SDS011;1322;53.256;10.386;2023-04-24T06:39:48;1.97;;;1.17;;
2624;SDS011;1322;53.256;10.386;2023-04-24T06:42:14;2.07;;;1.10;;
2624;SDS011;1322;53.256;10.386;2023-04-24T06:44:40;1.90;;;1.40;;
2624;SDS011;1322;53.256;10.386;2023-04-24T06:47:09;1.37;;;1.00;;
2624;SDS011;1322;53.256;10.386;2023-04-24T06:49:36;2.00;;;1.30;;
2624;SDS011;1322;53.256;10.386;2023-04-24T06:52:02;7.17;;;5.00;;
2624;SDS011;1322;53.256;10.386;2023-04-24T06:54:28;3.20;;;2.30;;
2624;SDS011;1322;53.256;10.386;2023-04-24T06:56:54;1.57;;;1.10;;
2624;SDS011;1322;53.256;10.386;2023-04-24T06:59:20;4.60;;;1.40;;
2624;SDS011;1322;53.256;10.386;2023-04-24T07:01:46;1.60;;;1.10;;
2624;SDS011;1322;53.256;10.386;2023-04-24T07:04:12;2.10;;;1.10;;
2624;SDS011;1322;53.256;10.386;2023-04-24T07:06:38;1.40;;;0.90;;
2624;SDS011;1322;53.256;10.386;2023-04-24T07:09:04;2.23;;;1.30;;
2624;SDS011;1322;53.256;10.386;2023-04-24T07:11:30;1.63;;;0.80;;
2624;SDS011;1322;53.256;10.386;2023-04-24T07:13:57;1.60;;;1.20;;
2624;SDS011;1322;53.256;10.386;2023-04-24T07:16:23;1.83;;;1.30;;
2624;SDS011;1322;53.256;10.386;2023-04-24T07:18:50;1.83;;;1.20;;
2624;SDS011;1322;53.256;10.386;2023-04-24T07:21:16;1.60;;;1.30;;
2624;SDS011;1322;53.256;10.386;2023-04-24T07:23:42;1.37;;;0.97;;
2624;SDS011;1322;53.256;10.386;2023-04-24T07:26:08;1.77;;;1.47;;
2624;SDS011;1322;53.256;10.386;2023-04-24T07:28:34;3.30;;;1.20;;
2624;SDS011;1322;53.256;10.386;2023-04-24T07:31:00;2.50;;;1.00;;
2624;SDS011;1322;53.256;10.386;2023-04-24T07:33:26;1.87;;;1.10;;
2624;SDS011;1322;53.256;10.386;2023-04-24T07:35:52;1.40;;;1.00;;
2624;SDS011;1322;53.256;10.386;2023-04-24T07:38:19;2.17;;;1.23;;
2624;SDS011;1322;53.256;10.386;2023-04-24T07:40:48;1.77;;;1.20;;
2624;SDS011;1322;53.256;10.386;2023-04-24T07:43:14;2.93;;;1.40;;
2624;SDS011;1322;53.256;10.386;2023-04-24T07:45:40;3.33;;;1.33;;
2624;SDS011;1322;53.256;10.386;2023-04-24T07:48:06;1.40;;;1.00;;
2624;SDS011;1322;53.256;10.386;2023-04-24T07:50:33;1.50;;;1.17;;
2624;SDS011;1322;53.256;10.386;2023-04-24T07:53:00;1.70;;;1.20;;
2624;SDS011;1322;53.256;10.386;2023-04-24T07:55:27;1.30;;;1.00;;
2624;SDS011;1322;53.256;10.386;2023-04-24T07:57:53;1.67;;;1.10;;
2624;SDS011;1322;53.256;10.386;2023-04-24T08:00:19;1.70;;;1.30;;
2624;SDS011;1322;53.256;10.386;2023-04-24T08:02:45;8.27;;;6.07;;
2624;SDS011;1322;53.256;10.386;2023-04-24T08:05:11;9.43;;;6.60;;
2624;SDS011;1322;53.256;10.386;2023-04-24T08:07:38;4.53;;;1.53;;
2624;SDS011;1322;53.256;10.386;2023-04-24T08:10:04;1.90;;;1.23;;
2624;SDS011;1322;53.256;10.386;2023-04-24T08:12:30;1.70;;;1.20;;
2624;SDS011;1322;53.256;10.386;2023-04-24T08:14:56;1.70;;;1.53;;
2624;SDS011;1322;53.256;10.386;2023-04-24T08:17:22;1.80;;;1.40;;
2624;SDS011;1322;53.256;10.386;2023-04-24T08:19:48;1.80;;;1.40;;
2624;SDS011;1322;53.256;10.386;2023-04-24T08:22:16;2.50;;;1.50;;
2624;SDS011;1322;53.256;10.386;2023-04-24T08:24:42;2.80;;;1.67;;
2624;SDS011;1322;53.256;10.386;2023-04-24T08:27:08;2.70;;;2.03;;
2624;SDS011;1322;53.256;10.386;2023-04-24T08:29:35;2.97;;;1.30;;
2624;SDS011;1322;53.256;10.386;2023-04-24T08:32:01;2.77;;;1.60;;
2624;SDS011;1322;53.256;10.386;2023-04-24T08:34:27;2.00;;;1.80;;
2624;SDS011;1322;53.256;10.386;2023-04-24T08:36:53;4.67;;;1.90;;
2624;SDS011;1322;53.256;10.386;2023-04-24T08:39:19;2.17;;;1.70;;
2624;SDS011;1322;53.256;10.386;2023-04-24T08:41:45;2.27;;;1.90;;
2624;SDS011;1322;53.256;10.386;2023-04-24T08:44:13;3.10;;;1.80;;
2624;SDS011;1322;53.256;10.386;2023-04-24T08:46:41;3.60;;;2.07;;
2624;SDS011;1322;53.256;10.386;2023-04-24T08:49:10;3.47;;;2.00;;
2624;SDS011;1322;53.256;10.386;2023-04-24T08:51:36;2.43;;;1.97;;
2624;SDS011;1322;53.256;10.386;2023-04-24T08:54:03;4.10;;;1.83;;
2624;SDS011;1322;53.256;10.386;2023-04-24T08:56:29;1.80;;;1.60;;
2624;SDS011;1322;53.256;10.386;2023-04-24T08:58:58;3.17;;;1.80;;
2624;SDS011;1322;53.256;10.386;2023-04-24T09:01:24;2.00;;;1.70;;
2624;SDS011;1322;53.256;10.386;2023-04-24T09:03:50;2.33;;;1.93;;
2624;SDS011;1322;53.256;10.386;2023-04-24T09:06:17;2.27;;;2.07;;
2624;SDS011;1322;53.256;10.386;2023-04-24T09:08:43;2.83;;;2.43;;
2624;SDS011;1322;53.256;10.386;2023-04-24T09:11:09;3.77;;;2.53;;
2624;SDS011;1322;53.256;10.386;2023-04-24T09:13:35;4.20;;;3.30;;
2624;SDS011;1322;53.256;10.386;2023-04-24T09:16:02;4.60;;;3.53;;
2624;SDS011;1322;53.256;10.386;2023-04-24T09:18:28;6.73;;;4.30;;
2624;SDS011;1322;53.256;10.386;2023-04-24T09:23:28;7.33;;;4.00;;
2624;SDS011;1322;53.256;10.386;2023-04-24T09:25:55;6.57;;;4.30;;
2624;SDS011;1322;53.256;10.386;2023-04-24T09:28:24;7.23;;;4.20;;
2624;SDS011;1322;53.256;10.386;2023-04-24T09:31:04;4.27;;;3.80;;
2624;SDS011;1322;53.256;10.386;2023-04-24T09:33:34;6.73;;;4.60;;
2624;SDS011;1322;53.256;10.386;2023-04-24T09:36:00;4.97;;;4.27;;
2624;SDS011;1322;53.256;10.386;2023-04-24T09:38:34;6.33;;;4.63;;
2624;SDS011;1322;53.256;10.386;2023-04-24T09:41:06;14.93;;;8.60;;
2624;SDS011;1322;53.256;10.386;2023-04-24T09:43:33;6.03;;;4.30;;
2624;SDS011;1322;53.256;10.386;2023-04-24T09:46:03;7.10;;;4.53;;
2624;SDS011;1322;53.256;10.386;2023-04-24T09:48:34;6.13;;;4.37;;
2624;SDS011;1322;53.256;10.386;2023-04-24T09:51:01;6.03;;;3.90;;
2624;SDS011;1322;53.256;10.386;2023-04-24T09:53:28;8.23;;;4.10;;
2624;SDS011;1322;53.256;10.386;2023-04-24T09:55:54;4.63;;;4.07;;
2624;SDS011;1322;53.256;10.386;2023-04-24T09:58:26;5.90;;;3.70;;
2624;SDS011;1322;53.256;10.386;2023-04-24T10:00:55;6.90;;;3.83;;
2624;SDS011;1322;53.256;10.386;2023-04-24T10:03:25;6.30;;;4.30;;
2624;SDS011;1322;53.256;10.386;2023-04-24T10:05:52;6.70;;;4.47;;
2624;SDS011;1322;53.256;10.386;2023-04-24T10:08:18;20.10;;;16.20;;
2624;SDS011;1322;53.256;10.386;2023-04-24T10:10:46;5.23;;;4.33;;
2624;SDS011;1322;53.256;10.386;2023-04-24T10:13:12;5.93;;;5.20;;
2624;SDS011;1322;53.256;10.386;2023-04-24T10:15:40;5.73;;;4.67;;
2624;SDS011;1322;53.256;10.386;2023-04-24T10:18:06;6.70;;;5.90;;
2624;SDS011;1322;53.256;10.386;2023-04-24T10:20:33;10.80;;;4.53;;
2624;SDS011;1322;53.256;10.386;2023-04-24T10:23:00;6.03;;;5.47;;
2624;SDS011;1322;53.256;10.386;2023-04-24T10:25:26;6.57;;;4.53;;
2624;SDS011;1322;53.256;10.386;2023-04-24T10:27:53;5.73;;;4.13;;
2624;SDS011;1322;53.256;10.386;2023-04-24T10:30:24;5.53;;;4.70;;
2624;SDS011;1322;53.256;10.386;2023-04-24T10:32:50;6.60;;;4.70;;
2624;SDS011;1322;53.256;10.386;2023-04-24T10:35:17;7.00;;;4.97;;
2624;SDS011;1322;53.256;10.386;2023-04-24T10:37:47;5.43;;;4.03;;
2624;SDS011;1322;53.256;10.386;2023-04-24T10:40:17;6.80;;;5.40;;
2624;SDS011;1322;53.256;10.386;2023-04-24T10:42:46;10.30;;;5.50;;
2624;SDS011;1322;53.256;10.386;2023-04-24T10:45:17;6.00;;;4.67;;
2624;SDS011;1322;53.256;10.386;2023-04-24T10:47:52;8.30;;;5.30;;
2624;SDS011;1322;53.256;10.386;2023-04-24T10:50:18;8.60;;;4.73;;
2624;SDS011;1322;53.256;10.386;2023-04-24T10:52:45;6.90;;;4.97;;
2624;SDS011;1322;53.256;10.386;2023-04-24T10:55:12;6.10;;;4.63;;
2624;SDS011;1322;53.256;10.386;2023-04-24T10:57:39;6.33;;;4.70;;
2624;SDS011;1322;53.256;10.386;2023-04-24T11:00:24;5.37;;;4.67;;
2624;SDS011;1322;53.256;10.386;2023-04-24T11:02:52;8.00;;;5.07;;
2624;SDS011;1322;53.256;10.386;2023-04-24T11:05:19;7.80;;;5.60;;
2624;SDS011;1322;53.256;10.386;2023-04-24T11:10:40;6.63;;;4.50;;
2624;SDS011;1322;53.256;10.386;2023-04-24T11:13:06;5.20;;;4.70;;
2624;SDS011;1322;53.256;10.386;2023-04-24T11:15:33;5.77;;;4.70;;
2624;SDS011;1322;53.256;10.386;2023-04-24T11:17:58;4.37;;;3.97;;
2624;SDS011;1322;53.256;10.386;2023-04-24T11:20:24;5.60;;;4.40;;
2624;SDS011;1322;53.256;10.386;2023-04-24T11:22:52;4.57;;;4.00;;
2624;SDS011;1322;53.256;10.386;2023-04-24T11:25:23;6.10;;;4.30;;
2624;SDS011;1322;53.256;10.386;2023-04-24T11:27:49;5.70;;;4.10;;
2624;SDS011;1322;53.256;10.386;2023-04-24T11:30:19;5.53;;;4.13;;
2624;SDS011;1322;53.256;10.386;2023-04-24T11:32:50;3.80;;;3.20;;
2624;SDS011;1322;53.256;10.386;2023-04-24T11:35:20;4.53;;;3.20;;
2624;SDS011;1322;53.256;10.386;2023-04-24T11:37:50;3.73;;;3.23;;
2624;SDS011;1322;53.256;10.386;2023-04-24T11:40:17;4.17;;;3.77;;
2624;SDS011;1322;53.256;10.386;2023-04-24T11:42:46;2.90;;;2.30;;
2624;SDS011;1322;53.256;10.386;2023-04-24T11:47:39;2.70;;;2.50;;
2624;SDS011;1322;53.256;10.386;2023-04-24T11:50:06;5.30;;;3.17;;
2624;SDS011;1322;53.256;10.386;2023-04-24T11:52:36;3.20;;;2.90;;
2624;SDS011;1322;53.256;10.386;2023-04-24T11:55:03;4.07;;;3.30;;
2624;SDS011;1322;53.256;10.386;2023-04-24T11:57:29;4.53;;;2.70;;
2624;SDS011;1322;53.256;10.386;2023-04-24T12:00:04;7.40;;;3.90;;
2624;SDS011;1322;53.256;10.386;2023-04-24T12:02:30;4.70;;;3.23;;
2624;SDS011;1322;53.256;10.386;2023-04-24T12:04:57;3.80;;;3.40;;
2624;SDS011;1322;53.256;10.386;2023-04-24T12:07:23;3.83;;;3.53;;
2624;SDS011;1322;53.256;10.386;2023-04-24T12:09:54;3.50;;;3.20;;
2624;SDS011;1322;53.256;10.386;2023-04-24T12:12:23;4.37;;;3.97;;
2624;SDS011;1322;53.256;10.386;2023-04-24T12:14:57;4.77;;;3.30;;
2624;SDS011;1322;53.256;10.386;2023-04-24T12:17:24;4.40;;;3.53;;
2624;SDS011;1322;53.256;10.386;2023-04-24T12:19:51;4.80;;;4.20;;
2624;SDS011;1322;53.256;10.386;2023-04-24T12:22:18;5.30;;;3.60;;
2624;SDS011;1322;53.256;10.386;2023-04-24T12:25:00;3.90;;;2.97;;
2624;SDS011;1322;53.256;10.386;2023-04-24T12:27:33;6.23;;;3.10;;
2624;SDS011;1322;53.256;10.386;2023-04-24T12:30:01;3.73;;;3.23;;
2624;SDS011;1322;53.256;10.386;2023-04-24T12:32:29;3.40;;;3.10;;
2624;SDS011;1322;53.256;10.386;2023-04-24T12:34:55;5.20;;;4.33;;
2624;SDS011;1322;53.256;10.386;2023-04-24T12:37:24;5.37;;;4.23;;
2624;SDS011;1322;53.256;10.386;2023-04-24T12:40:01;4.50;;;3.00;;
2624;SDS011;1322;53.256;10.386;2023-04-24T12:42:34;4.30;;;3.30;;
2624;SDS011;1322;53.256;10.386;2023-04-24T12:45:02;3.63;;;2.87;;
2624;SDS011;1322;53.256;10.386;2023-04-24T12:47:29;6.57;;;3.20;;
2624;SDS011;1322;53.256;10.386;2023-04-24T12:49:56;3.03;;;2.73;;
2624;SDS011;1322;53.256;10.386;2023-04-24T12:52:22;4.43;;;2.83;;
2624;SDS011;1322;53.256;10.386;2023-04-24T12:54:49;4.60;;;2.70;;
2624;SDS011;1322;53.256;10.386;2023-04-24T12:57:16;3.40;;;2.70;;
2624;SDS011;1322;53.256;10.386;2023-04-24T12:59:41;2.90;;;2.63;;
2624;SDS011;1322;53.256;10.386;2023-04-24T13:02:08;2.63;;;2.43;;
2624;SDS011;1322;53.256;10.386;2023-04-24T13:04:35;3.00;;;2.70;;
2624;SDS011;1322;53.256;10.386;2023-04-24T13:07:01;4.67;;;3.80;;
2624;SDS011;1322;53.256;10.386;2023-04-24T13:09:27;3.17;;;2.50;;
2624;SDS011;1322;53.256;10.386;2023-04-24T13:11:53;3.33;;;2.70;;
2624;SDS011;1322;53.256;10.386;2023-04-24T13:14:21;4.13;;;2.33;;
2624;SDS011;1322;53.256;10.386;2023-04-24T13:16:47;3.70;;;2.33;;
2624;SDS011;1322;53.256;10.386;2023-04-24T13:19:13;2.47;;;2.23;;
2624;SDS011;1322;53.256;10.386;2023-04-24T13:21:40;3.07;;;2.40;;
2624;SDS011;1322;53.256;10.386;2023-04-24T13:24:06;2.67;;;2.17;;
2624;SDS011;1322;53.256;10.386;2023-04-24T13:26:32;2.50;;;2.23;;
2624;SDS011;1322;53.256;10.386;2023-04-24T13:28:58;2.00;;;1.83;;
2624;SDS011;1322;53.256;10.386;2023-04-24T13:31:25;3.23;;;2.37;;
2624;SDS011;1322;53.256;10.386;2023-04-24T13:33:51;3.53;;;2.77;;
2624;SDS011;1322;53.256;10.386;2023-04-24T13:36:17;5.33;;;2.50;;
2624;SDS011;1322;53.256;10.386;2023-04-24T13:38:46;2.00;;;1.87;;
2624;SDS011;1322;53.256;10.386;2023-04-24T13:41:11;2.30;;;2.10;;
2624;SDS011;1322;53.256;10.386;2023-04-24T13:43:38;1.83;;;1.60;;
2624;SDS011;1322;53.256;10.386;2023-04-24T13:46:04;2.87;;;2.20;;
2624;SDS011;1322;53.256;10.386;2023-04-24T13:48:30;3.43;;;2.30;;
2624;SDS011;1322;53.256;10.386;2023-04-24T13:50:56;3.30;;;2.77;;
2624;SDS011;1322;53.256;10.386;2023-04-24T13:53:22;6.00;;;5.23;;
2624;SDS011;1322;53.256;10.386;2023-04-24T13:55:48;2.83;;;1.93;;
2624;SDS011;1322;53.256;10.386;2023-04-24T13:58:14;2.80;;;2.23;;
2624;SDS011;1322;53.256;10.386;2023-04-24T14:00:40;2.60;;;2.40;;
2624;SDS011;1322;53.256;10.386;2023-04-24T14:03:06;2.30;;;1.93;;
2624;SDS011;1322;53.256;10.386;2023-04-24T14:05:32;3.07;;;2.10;;
2624;SDS011;1322;53.256;10.386;2023-04-24T14:07:58;3.93;;;1.90;;
2624;SDS011;1322;53.256;10.386;2023-04-24T14:10:24;6.03;;;2.40;;
2624;SDS011;1322;53.256;10.386;2023-04-24T14:12:52;2.20;;;1.80;;
2624;SDS011;1322;53.256;10.386;2023-04-24T14:15:18;3.20;;;1.60;;
2624;SDS011;1322;53.256;10.386;2023-04-24T14:17:44;6.70;;;1.97;;
2624;SDS011;1322;53.256;10.386;2023-04-24T14:20:11;2.40;;;2.13;;
2624;SDS011;1322;53.256;10.386;2023-04-24T14:22:37;2.27;;;1.93;;
2624;SDS011;1322;53.256;10.386;2023-04-24T14:25:04;4.60;;;2.00;;
2624;SDS011;1322;53.256;10.386;2023-04-24T14:27:31;2.43;;;2.20;;
2624;SDS011;1322;53.256;10.386;2023-04-24T14:29:57;2.80;;;2.10;;
2624;SDS011;1322;53.256;10.386;2023-04-24T14:32:23;4.00;;;2.53;;
2624;SDS011;1322;53.256;10.386;2023-04-24T14:34:49;4.43;;;2.30;;
2624;SDS011;1322;53.256;10.386;2023-04-24T14:37:15;3.70;;;2.33;;
2624;SDS011;1322;53.256;10.386;2023-04-24T14:39:42;4.73;;;2.67;;
2624;SDS011;1322;53.256;10.386;2023-04-24T14:42:08;2.30;;;1.50;;
2624;SDS011;1322;53.256;10.386;2023-04-24T14:44:34;1.80;;;1.70;;
2624;SDS011;1322;53.256;10.386;2023-04-24T14:47:00;1.90;;;1.67;;
2624;SDS011;1322;53.256;10.386;2023-04-24T14:49:26;1.90;;;1.60;;
2624;SDS011;1322;53.256;10.386;2023-04-24T14:51:52;12.50;;;1.47;;
2624;SDS011;1322;53.256;10.386;2023-04-24T14:54:18;1.30;;;1.10;;
2624;SDS011;1322;53.256;10.386;2023-04-24T14:56:47;1.40;;;0.83;;
2624;SDS011;1322;53.256;10.386;2023-04-24T14:59:14;1.20;;;0.87;;
2624;SDS011;1322;53.256;10.386;2023-04-24T15:01:40;4.07;;;2.77;;
2624;SDS011;1322;53.256;10.386;2023-04-24T15:04:06;3.20;;;1.33;;
2624;SDS011;1322;53.256;10.386;2023-04-24T15:06:32;1.20;;;0.97;;